EYVI/VNO METAR and TAF weather

Enter ICAO airport designator
Station Type Date Time Source
EYVI METAR 2021/07/29 02:50 UTC NOAA

EYVI 290250Z VRB02KT CAVOK 20/17 Q1009 NOSIG


Station Type Date Time Source
EYVI Decoded METAR 2021/07/29 02:50 UTC NOAA

Vilnius, Lithuania (EYVI) 54-38N 025-06E 156M
Jul 28, 2021 - 10:50 PM EDT / 2021.07.29 0250 UTC
Wind: Variable at 2 MPH (2 KT):0
Visibility: greater than 7 mile(s):0
Temperature: 68 F (20 C)
Dew Point: 62 F (17 C)
Relative Humidity: 82%
Pressure (altimeter): 29.80 in. Hg (1009 hPa)
ob: EYVI 290250Z VRB02KT CAVOK 20/17 Q1009 NOSIG
cycle: 3

Station Type Date Time Source
EYVI TAF 2021/07/28 18:09 UTC NOAA

TAF EYVI 281706Z 2818/2918 VRB05KT 9000 BKN035
TEMPO 2818/2821 SCT025CB
TEMPO 2900/2910 VRB20KT 3000 TSRA BKN005 BKN020CB
BECMG 2910/2911 25015KT
TEMPO 2911/2915 TSRA BKN025CB

Example: see airport list